Rye, New York
Current Conditions -  °F | °C
As of 6:56 PM on Wednesday 26 Nov 2014 (Local Time) from KHPN Reporting Station
Light Rain Light Rain  
Wind Chill: 23°   Ceiling: 600
Heat Index: 34°   Visibility: 2.5mi
Dew Point: 32°   Wind: 20mph
Humidity: 92%   Direction: 340°NNW
Pressure: 29.76"   Gusts: NA
Location:  40.98°N, 73.68°W
Report Text: KHPN 262356Z 34017KT 2 1/2SM -RA BR BKN006 OVC010 01/00 A2976 RMK AO2 SNB51E53 SLP083 P0003 60039 T00110000 10017 20006 56023
Loading
Personal Weather Stations






























Interactive Weather Map New forecast layout! Learn more

10-Day Weather Forecast

Advertisements
Track Severe Weather on mobile